Time,TemperatureF,DewpointF,PressureIn,WindDirection,WindDirectionDegrees,WindSpeedMPH,WindSpeedGustMPH,Humidity,HourlyPrecipIn,Conditions,Clouds,dailyrainin,SoftwareType,DateUTC
2013-05-30 00:09:00,61.1,61.0,30.24,NW,326,2.0,2.0,98,0.00,,,1.11,weatherlink.com 1.10,2013-05-30 04:09:00,
2013-05-30 00:24:00,61.2,61.0,30.24,NW,326,2.0,3.0,98,0.00,,,1.11,weatherlink.com 1.10,2013-05-30 04:24:00,
2013-05-30 00:39:00,61.1,61.0,30.24,NW,322,1.0,3.0,98,0.00,,,1.11,weatherlink.com 1.10,2013-05-30 04:39:00,
2013-05-30 00:54:00,61.3,61.0,30.25,NW,324,1.0,2.0,99,0.00,,,1.11,weatherlink.com 1.10,2013-05-30 04:54:00,
2013-05-30 01:09:00,60.8,60.0,30.25,NW,325,0.0,0.0,98,0.00,,,1.11,weatherlink.com 1.10,2013-05-30 05:09:00,
2013-05-30 01:24:00,60.8,61.0,30.25,NW,324,0.0,1.0,99,0.00,,,1.11,weatherlink.com 1.10,2013-05-30 05:24:00,
2013-05-30 01:39:00,60.7,61.0,30.25,NW,325,0.0,1.0,99,0.00,,,1.11,weatherlink.com 1.10,2013-05-30 05:39:00,
2013-05-30 01:54:00,60.9,61.0,30.25,NW,324,0.0,0.0,99,0.00,,,0.00,weatherlink.com 1.10,2013-05-30 05:54:00,
2013-05-30 02:09:00,61.0,61.0,30.25,NW,325,0.0,0.0,99,0.00,,,0.00,weatherlink.com 1.10,2013-05-30 06:09:00,
2013-05-30 02:24:00,61.0,61.0,30.25,NW,324,1.0,1.0,99,0.00,,,0.00,weatherlink.com 1.10,2013-05-30 06:24:00,
2013-05-30 02:39:00,61.1,61.0,30.25,NW,324,0.0,1.0,99,0.00,,,0.00,weatherlink.com 1.10,2013-05-30 06:39:00,
2013-05-30 02:55:00,61.5,61.0,30.25,NNW,328,2.0,3.0,99,0.00,,,0.00,weatherlink.com 1.10,2013-05-30 06:55:00,
2013-05-30 03:10:00,61.7,62.0,30.26,NW,324,1.0,3.0,99,0.00,,,0.00,weatherlink.com 1.10,2013-05-30 07:10:00,
2013-05-30 03:25:00,61.8,62.0,30.26,NNW,328,1.0,3.0,99,0.00,,,0.00,weatherlink.com 1.10,2013-05-30 07:25:00,
2013-05-30 03:40:00,61.7,62.0,30.26,NW,321,2.0,3.0,99,0.00,,,0.00,weatherlink.com 1.10,2013-05-30 07:40:00,
2013-05-30 03:55:00,61.4,61.0,30.25,NW,321,2.0,3.0,99,0.00,,,0.00,weatherlink.com 1.10,2013-05-30 07:55:00,
2013-05-30 04:10:00,61.4,61.0,30.25,NNW,337,2.0,3.0,99,0.00,,,0.00,weatherlink.com 1.10,2013-05-30 08:10:00,
2013-05-30 04:25:00,61.4,61.0,30.25,NW,320,2.0,3.0,99,0.00,,,0.00,weatherlink.com 1.10,2013-05-30 08:25:00,
2013-05-30 04:40:00,61.2,61.0,30.25,NNW,328,2.0,3.0,99,0.00,,,0.00,weatherlink.com 1.10,2013-05-30 08:40:00,
2013-05-30 04:55:00,60.8,61.0,30.25,NW,322,1.0,3.0,99,0.00,,,0.00,weatherlink.com 1.10,2013-05-30 08:55:00,
2013-05-30 05:10:00,60.7,61.0,30.26,NNW,328,2.0,3.0,99,0.00,,,0.00,weatherlink.com 1.10,2013-05-30 09:10:00,
2013-05-30 05:25:00,60.4,60.0,30.26,NW,321,3.0,3.0,99,0.00,,,0.00,weatherlink.com 1.10,2013-05-30 09:25:00,
2013-05-30 05:40:00,60.2,60.0,30.27,NW,326,2.0,4.0,99,0.01,,,0.01,weatherlink.com 1.10,2013-05-30 09:40:00,
2013-05-30 05:55:00,60.3,60.0,30.27,NNW,340,1.0,3.0,99,0.01,,,0.01,weatherlink.com 1.10,2013-05-30 09:55:00,
2013-05-30 06:10:00,60.4,60.0,30.28,NW,316,1.0,3.0,99,0.01,,,0.01,weatherlink.com 1.10,2013-05-30 10:10:00,
2013-05-30 06:25:00,60.5,60.0,30.28,NNW,336,1.0,2.0,99,0.01,,,0.01,weatherlink.com 1.10,2013-05-30 10:25:00,
2013-05-30 06:40:00,61.1,61.0,30.29,NNW,329,2.0,3.0,99,0.00,,,0.01,weatherlink.com 1.10,2013-05-30 10:40:00,
2013-05-30 06:55:00,61.5,61.0,30.29,NW,316,0.0,3.0,99,0.00,,,0.01,weatherlink.com 1.10,2013-05-30 10:55:00,
2013-05-30 07:10:00,61.9,62.0,30.30,NW,326,2.0,2.0,99,0.00,,,0.01,weatherlink.com 1.10,2013-05-30 11:10:00,
2013-05-30 07:25:00,62.6,62.0,30.30,NNW,330,1.0,2.0,99,0.00,,,0.01,weatherlink.com 1.10,2013-05-30 11:25:00,
2013-05-30 07:40:00,63.5,64.0,30.30,North,354,0.0,2.0,100,0.00,,,0.01,weatherlink.com 1.10,2013-05-30 11:40:00,
2013-05-30 07:55:00,64.6,65.0,30.30,North,349,0.0,1.0,100,0.00,,,0.01,weatherlink.com 1.10,2013-05-30 11:55:00,
2013-05-30 08:10:00,65.9,66.0,30.30,NNW,348,0.0,1.0,100,0.00,,,0.01,weatherlink.com 1.10,2013-05-30 12:10:00,
2013-05-30 08:25:00,67.0,67.0,30.30,SW,215,0.0,2.0,99,0.00,,,0.01,weatherlink.com 1.10,2013-05-30 12:25:00,
2013-05-30 08:40:00,68.2,67.0,30.30,NE,47,0.0,5.0,97,0.00,,,0.01,weatherlink.com 1.10,2013-05-30 12:40:00,
2013-05-30 08:55:00,70.3,67.0,30.30,WSW,238,0.0,4.0,90,0.00,,,0.01,weatherlink.com 1.10,2013-05-30 12:55:00,
2013-05-30 09:10:00,71.5,68.0,30.30,SE,132,0.0,4.0,87,0.00,,,0.01,weatherlink.com 1.10,2013-05-30 13:10:00,
2013-05-30 09:25:00,72.6,66.0,30.30,SW,225,3.0,7.0,80,0.00,,,0.01,weatherlink.com 1.10,2013-05-30 13:25:00,
2013-05-30 09:40:00,73.7,68.0,30.30,SSW,203,1.0,6.0,83,0.00,,,0.01,weatherlink.com 1.10,2013-05-30 13:40:00,
2013-05-30 09:55:00,74.8,66.0,30.30,SSE,165,2.0,7.0,74,0.00,,,0.01,weatherlink.com 1.10,2013-05-30 13:55:00,
2013-05-30 10:10:00,75.0,67.0,30.30,NNE,25,2.0,5.0,76,0.00,,,0.01,weatherlink.com 1.10,2013-05-30 14:10:00,
2013-05-30 10:26:00,75.2,67.0,30.30,SW,215,1.0,6.0,76,0.00,,,0.01,weatherlink.com 1.10,2013-05-30 14:26:00,
2013-05-30 10:41:00,76.2,69.0,30.30,SW,215,4.0,6.0,77,0.00,,,0.01,weatherlink.com 1.10,2013-05-30 14:41:00,
2013-05-30 10:56:00,77.3,68.0,30.30,SSE,165,3.0,8.0,73,0.00,,,0.01,weatherlink.com 1.10,2013-05-30 14:56:00,
2013-05-30 11:11:00,78.4,68.0,30.30,NW,326,5.0,7.0,71,0.00,,,0.01,weatherlink.com 1.10,2013-05-30 15:11:00,
2013-05-30 11:26:00,78.2,68.0,30.30,North,359,2.0,5.0,72,0.00,,,0.01,weatherlink.com 1.10,2013-05-30 15:26:00,
2013-05-30 11:41:00,78.5,68.0,30.30,SSE,162,2.0,12.0,69,0.00,,,0.01,weatherlink.com 1.10,2013-05-30 15:41:00,
2013-05-30 11:56:00,78.7,67.0,30.29,South,171,4.0,9.0,67,0.00,,,0.01,weatherlink.com 1.10,2013-05-30 15:56:00,
2013-05-30 12:11:00,79.7,68.0,30.29,SW,219,5.0,10.0,67,0.00,,,0.01,weatherlink.com 1.10,2013-05-30 16:11:00,
2013-05-30 12:26:00,79.7,66.0,30.29,NE,45,4.0,7.0,64,0.00,,,0.01,weatherlink.com 1.10,2013-05-30 16:26:00,
2013-05-30 12:41:00,81.1,67.0,30.29,SSW,197,4.0,10.0,62,0.00,,,0.01,weatherlink.com 1.10,2013-05-30 16:41:00,
2013-05-30 12:56:00,80.0,68.0,30.29,South,175,3.0,8.0,66,0.00,,,0.01,weatherlink.com 1.10,2013-05-30 16:56:00,
2013-05-30 13:11:00,80.2,66.0,30.29,NNW,340,2.0,5.0,62,0.00,,,0.01,weatherlink.com 1.10,2013-05-30 17:11:00,
2013-05-30 13:26:00,80.1,64.0,30.28,South,187,4.0,6.0,58,0.00,,,0.01,weatherlink.com 1.10,2013-05-30 17:26:00,
2013-05-30 13:41:00,79.4,63.0,30.28,South,182,3.0,5.0,58,0.00,,,0.01,weatherlink.com 1.10,2013-05-30 17:41:00,
2013-05-30 13:56:00,79.6,65.0,30.28,SW,216,2.0,7.0,61,0.00,,,0.01,weatherlink.com 1.10,2013-05-30 17:56:00,
2013-05-30 14:11:00,79.5,63.0,30.28,South,187,4.0,9.0,58,0.00,,,0.01,weatherlink.com 1.10,2013-05-30 18:11:00,
2013-05-30 14:26:00,80.7,63.0,30.27,SSW,194,1.0,5.0,56,0.00,,,0.01,weatherlink.com 1.10,2013-05-30 18:26:00,
2013-05-30 14:41:00,81.6,64.0,30.27,SW,217,3.0,7.0,56,0.00,,,0.01,weatherlink.com 1.10,2013-05-30 18:41:00,
2013-05-30 14:56:00,83.4,64.0,30.27,SW,215,4.0,8.0,52,0.00,,,0.01,weatherlink.com 1.10,2013-05-30 18:56:00,
2013-05-30 15:11:00,83.3,63.0,30.27,SW,232,1.0,12.0,51,0.00,,,0.01,weatherlink.com 1.10,2013-05-30 19:11:00,
2013-05-30 15:26:00,83.1,63.0,30.27,East,101,2.0,15.0,50,0.00,,,0.01,weatherlink.com 1.10,2013-05-30 19:26:00,
2013-05-30 15:41:00,82.5,63.0,30.26,NNW,342,1.0,10.0,51,0.00,,,0.01,weatherlink.com 1.10,2013-05-30 19:41:00,
2013-05-30 15:56:00,83.0,64.0,30.26,WSW,250,2.0,7.0,53,0.00,,,0.01,weatherlink.com 1.10,2013-05-30 19:56:00,
2013-05-30 16:11:00,83.4,63.0,30.26,NNW,327,5.0,7.0,51,0.00,,,0.01,weatherlink.com 1.10,2013-05-30 20:11:00,
2013-05-30 16:26:00,82.4,62.0,30.26,SE,138,3.0,7.0,51,0.00,,,0.01,weatherlink.com 1.10,2013-05-30 20:26:00,
2013-05-30 16:41:00,82.9,64.0,30.26,SSW,203,6.0,6.0,54,0.00,,,0.01,weatherlink.com 1.10,2013-05-30 20:41:00,
2013-05-30 16:56:00,83.0,64.0,30.26,SW,217,3.0,9.0,53,0.00,,,0.01,weatherlink.com 1.10,2013-05-30 20:56:00,
2013-05-30 17:11:00,81.8,62.0,30.26,SSE,161,1.0,9.0,52,0.00,,,0.01,weatherlink.com 1.10,2013-05-30 21:11:00,
2013-05-30 17:27:00,81.1,62.0,30.26,SE,134,4.0,8.0,53,0.00,,,0.01,weatherlink.com 1.10,2013-05-30 21:27:00,
2013-05-30 17:42:00,79.9,62.0,30.26,NE,56,2.0,4.0,54,0.00,,,0.01,weatherlink.com 1.10,2013-05-30 21:42:00,
2013-05-30 17:57:00,79.9,63.0,30.25,SSE,166,2.0,7.0,56,0.00,,,0.01,weatherlink.com 1.10,2013-05-30 21:57:00,
2013-05-30 18:12:00,79.2,66.0,30.25,South,191,1.0,4.0,65,0.00,,,0.01,weatherlink.com 1.10,2013-05-30 22:12:00,
2013-05-30 18:27:00,77.9,62.0,30.25,South,180,2.0,6.0,59,0.00,,,0.01,weatherlink.com 1.10,2013-05-30 22:27:00,
2013-05-30 18:42:00,77.6,62.0,30.25,South,184,2.0,4.0,59,0.00,,,0.01,weatherlink.com 1.10,2013-05-30 22:42:00,
2013-05-30 18:57:00,75.0,64.0,30.25,North,357,2.0,4.0,69,0.00,,,0.01,weatherlink.com 1.10,2013-05-30 22:57:00,
2013-05-30 19:12:00,72.5,63.0,30.25,NW,319,1.0,3.0,73,0.00,,,0.01,weatherlink.com 1.10,2013-05-30 23:12:00,
2013-05-30 19:27:00,71.4,64.0,30.25,NW,326,1.0,3.0,76,0.00,,,0.01,weatherlink.com 1.10,2013-05-30 23:27:00,
2013-05-30 19:42:00,70.6,64.0,30.26,NW,326,2.0,2.0,79,0.00,,,0.01,weatherlink.com 1.10,2013-05-30 23:42:00,
2013-05-30 19:57:00,70.0,64.0,30.26,NW,326,1.0,3.0,80,0.00,,,0.01,weatherlink.com 1.10,2013-05-30 23:57:00,
2013-05-30 20:12:00,69.6,63.0,30.26,NNW,328,2.0,3.0,80,0.00,,,0.01,weatherlink.com 1.10,2013-05-31 00:12:00,
2013-05-30 20:27:00,69.3,63.0,30.26,NW,326,2.0,3.0,80,0.00,,,0.01,weatherlink.com 1.10,2013-05-31 00:27:00,
2013-05-30 20:42:00,68.8,63.0,30.26,NNW,328,2.0,3.0,81,0.00,,,0.01,weatherlink.com 1.10,2013-05-31 00:42:00,
2013-05-30 20:57:00,68.6,63.0,30.26,NNW,328,1.0,2.0,81,0.00,,,0.01,weatherlink.com 1.10,2013-05-31 00:57:00,
2013-05-30 21:12:00,68.2,62.0,30.26,NNW,328,1.0,2.0,81,0.00,,,0.01,weatherlink.com 1.10,2013-05-31 01:12:00,
2013-05-30 21:27:00,68.0,62.0,30.26,NNW,328,1.0,2.0,82,0.00,,,0.01,weatherlink.com 1.10,2013-05-31 01:27:00,
2013-05-30 21:42:00,67.6,62.0,30.27,NNW,328,1.0,2.0,83,0.00,,,0.01,weatherlink.com 1.10,2013-05-31 01:42:00,
2013-05-30 21:57:00,66.8,62.0,30.27,NNW,328,1.0,2.0,84,0.00,,,0.01,weatherlink.com 1.10,2013-05-31 01:57:00,
2013-05-30 22:12:00,66.6,62.0,30.27,NNW,328,1.0,1.0,85,0.00,,,0.01,weatherlink.com 1.10,2013-05-31 02:12:00,
2013-05-30 22:27:00,66.1,62.0,30.27,NNW,328,1.0,2.0,85,0.00,,,0.01,weatherlink.com 1.10,2013-05-31 02:27:00,
2013-05-30 22:42:00,65.4,62.0,30.28,NNW,329,1.0,1.0,87,0.00,,,0.01,weatherlink.com 1.10,2013-05-31 02:42:00,
2013-05-30 22:57:00,65.1,61.0,30.28,NNW,328,1.0,1.0,87,0.00,,,0.01,weatherlink.com 1.10,2013-05-31 02:57:00,
2013-05-30 23:12:00,64.8,62.0,30.27,NNW,328,1.0,1.0,89,0.00,,,0.01,weatherlink.com 1.10,2013-05-31 03:12:00,
2013-05-30 23:27:00,64.3,61.0,30.27,NNW,328,1.0,1.0,89,0.00,,,0.01,weatherlink.com 1.10,2013-05-31 03:27:00,
2013-05-30 23:42:00,64.3,61.0,30.27,NNW,328,0.0,1.0,89,0.00,,,0.01,weatherlink.com 1.10,2013-05-31 03:42:00,
2013-05-30 23:57:00,63.9,61.0,30.28,NNW,329,0.0,1.0,90,0.00,,,0.01,weatherlink.com 1.10,2013-05-31 03:57:00,